createdAt,value
2018-05-02T00:00:57.354Z,5.60
2018-05-02T00:03:25.606Z,5.42
2018-05-02T00:05:53.894Z,5.12
2018-05-02T00:08:22.177Z,5.10
2018-05-02T00:10:50.528Z,4.90
2018-05-02T00:13:18.867Z,4.83
2018-05-02T00:15:47.147Z,4.95
2018-05-02T00:18:14.654Z,4.80
2018-05-02T00:20:42.943Z,5.15
2018-05-02T00:23:11.190Z,5.00
2018-05-02T00:25:39.471Z,4.60
2018-05-02T00:28:07.757Z,4.83
2018-05-02T00:30:36.038Z,5.05
2018-05-02T00:33:04.305Z,5.00
2018-05-02T00:35:32.601Z,4.60
2018-05-02T00:38:00.873Z,5.03
2018-05-02T00:40:29.131Z,5.08
2018-05-02T00:42:57.404Z,5.17
2018-05-02T00:45:25.663Z,4.80
2018-05-02T00:47:53.943Z,5.20
2018-05-02T00:50:22.193Z,5.05
2018-05-02T00:52:50.470Z,4.90
2018-05-02T00:55:18.709Z,6.20
2018-05-02T00:57:46.957Z,5.50
2018-05-02T01:00:15.261Z,5.72
2018-05-02T01:02:43.518Z,6.05
2018-05-02T01:05:11.040Z,5.58
2018-05-02T01:07:39.311Z,6.00
2018-05-02T01:10:07.661Z,6.40
2018-05-02T01:12:36.000Z,5.95
2018-05-02T01:15:04.253Z,6.35
2018-05-02T01:17:32.526Z,6.25
2018-05-02T01:20:00.806Z,5.90
2018-05-02T01:22:29.042Z,6.83
2018-05-02T01:24:57.338Z,6.08
2018-05-02T01:27:25.577Z,6.60
2018-05-02T01:29:53.874Z,5.80
2018-05-02T01:32:22.147Z,5.72
2018-05-02T01:34:50.414Z,6.92
2018-05-02T01:37:18.670Z,6.40
2018-05-02T01:39:46.971Z,5.70
2018-05-02T01:42:15.246Z,6.00
2018-05-02T01:44:43.544Z,6.00
2018-05-02T01:47:11.822Z,5.97
2018-05-02T01:49:40.089Z,6.25
2018-05-02T01:52:08.372Z,6.30
2018-05-02T01:54:36.654Z,6.05
2018-05-02T01:57:04.916Z,6.20
2018-05-02T01:59:33.195Z,5.92
2018-05-02T02:02:01.460Z,5.70
2018-05-02T02:04:29.751Z,5.60
2018-05-02T02:06:58.051Z,5.85
2018-05-02T02:09:25.579Z,6.12
2018-05-02T02:11:53.878Z,5.95
2018-05-02T02:14:22.207Z,6.28
2018-05-02T02:16:50.489Z,6.15
2018-05-02T02:19:18.743Z,6.58
2018-05-02T02:21:47.023Z,5.72
2018-05-02T02:24:15.274Z,6.35
2018-05-02T02:26:43.574Z,5.97
2018-05-02T02:29:11.819Z,5.80
2018-05-02T02:31:39.342Z,6.12
2018-05-02T02:34:07.732Z,6.72
2018-05-02T02:36:35.959Z,5.97
2018-05-02T02:39:04.789Z,5.58
2018-05-02T02:41:33.119Z,5.60
2018-05-02T02:44:01.378Z,6.03
2018-05-02T02:46:28.874Z,6.25
2018-05-02T02:48:57.158Z,6.22
2018-05-02T02:51:25.424Z,6.20
2018-05-02T02:53:53.690Z,5.80
2018-05-02T02:56:21.978Z,6.00
2018-05-02T02:58:50.347Z,5.90
2018-05-02T03:01:18.607Z,5.90
2018-05-02T03:03:46.896Z,6.62
2018-05-02T03:06:15.210Z,5.35
2018-05-02T03:08:43.523Z,5.90
2018-05-02T03:11:11.026Z,6.30
2018-05-02T03:13:39.301Z,6.05
2018-05-02T03:16:07.557Z,6.50
2018-05-02T03:18:35.838Z,6.10
2018-05-02T03:21:04.079Z,6.10
2018-05-02T03:23:32.397Z,5.92
2018-05-02T03:26:00.650Z,6.72
2018-05-02T03:28:28.909Z,6.37
2018-05-02T03:30:56.458Z,6.90
2018-05-02T03:33:24.698Z,6.08
2018-05-02T03:35:52.978Z,6.20
2018-05-02T03:38:21.305Z,6.42
2018-05-02T03:40:49.607Z,5.95
2018-05-02T03:43:17.863Z,6.20
2018-05-02T03:45:46.134Z,6.33
2018-05-02T03:48:14.366Z,6.53
2018-05-02T03:50:42.661Z,5.75
2018-05-02T03:53:10.936Z,6.00
2018-05-02T03:55:39.253Z,6.12
2018-05-02T03:58:07.502Z,6.00
2018-05-02T04:00:47.160Z,6.75
2018-05-02T04:03:26.856Z,6.22
2018-05-02T04:06:11.382Z,7.12
2018-05-02T04:08:39.720Z,6.97
2018-05-02T04:11:08.025Z,6.45
2018-05-02T04:13:36.346Z,6.97
2018-05-02T04:16:04.662Z,7.05
2018-05-02T04:18:32.918Z,6.33
2018-05-02T04:21:01.211Z,6.83
2018-05-02T04:23:29.499Z,7.03
2018-05-02T04:25:57.754Z,7.05
2018-05-02T04:28:26.056Z,6.47
2018-05-02T04:30:54.319Z,6.60
2018-05-02T04:33:22.654Z,8.03
2018-05-02T04:35:50.887Z,7.70
2018-05-02T04:38:19.154Z,6.25
2018-05-02T04:40:47.413Z,7.37
2018-05-02T04:43:15.719Z,7.10
2018-05-02T04:45:43.969Z,6.95
2018-05-02T04:48:12.270Z,6.87
2018-05-02T04:50:40.564Z,8.55
2018-05-02T04:53:08.854Z,7.92
2018-05-02T04:55:37.122Z,8.00
2018-05-02T04:58:05.384Z,7.28
2018-05-02T05:00:33.670Z,6.95
2018-05-02T05:03:01.931Z,7.12
2018-05-02T05:05:30.222Z,6.95
2018-05-02T05:07:58.474Z,7.50
2018-05-02T05:10:26.758Z,7.15
2018-05-02T05:12:55.047Z,7.05
2018-05-02T05:15:23.330Z,6.83
2018-05-02T05:17:51.610Z,6.80
2018-05-02T05:20:19.925Z,7.40
2018-05-02T05:22:48.197Z,7.60
2018-05-02T05:25:16.510Z,7.20
2018-05-02T05:27:44.790Z,7.65
2018-05-02T05:30:13.099Z,7.10
2018-05-02T05:32:41.371Z,7.72
2018-05-02T05:35:09.756Z,7.90
2018-05-02T05:37:38.030Z,6.78
2018-05-02T05:40:06.303Z,7.80
2018-05-02T05:42:34.614Z,7.33
2018-05-02T05:45:02.880Z,7.35
2018-05-02T05:47:31.159Z,7.70
2018-05-02T05:49:59.417Z,8.05
2018-05-02T05:52:27.710Z,8.13
2018-05-02T05:54:55.985Z,7.62
2018-05-02T05:57:24.241Z,7.42
2018-05-02T05:59:52.533Z,8.10
2018-05-02T06:02:20.842Z,8.10
2018-05-02T06:04:49.133Z,8.28
2018-05-02T06:07:17.435Z,6.85
2018-05-02T06:09:45.671Z,7.90
2018-05-02T06:12:13.973Z,7.50
2018-05-02T06:14:42.294Z,8.10
2018-05-02T06:17:10.542Z,7.08
2018-05-02T06:19:38.834Z,7.90
2018-05-02T06:22:07.129Z,7.35
2018-05-02T06:24:34.686Z,7.70
2018-05-02T06:27:02.965Z,7.75
2018-05-02T06:29:31.270Z,7.33
2018-05-02T06:31:59.565Z,7.20
2018-05-02T06:34:27.869Z,8.40
2018-05-02T06:36:56.118Z,6.75
2018-05-02T06:39:24.423Z,7.12
2018-05-02T06:41:52.714Z,7.08
2018-05-02T06:44:20.997Z,6.83
2018-05-02T06:46:49.266Z,7.03
2018-05-02T06:49:17.687Z,7.05
2018-05-02T06:51:45.958Z,7.40
2018-05-02T06:54:14.242Z,7.90
2018-05-02T06:56:41.777Z,7.45
2018-05-02T06:59:10.059Z,7.15
2018-05-02T07:01:38.351Z,8.38
2018-05-02T07:04:05.947Z,8.43
2018-05-02T07:06:34.264Z,8.03
2018-05-02T07:09:02.617Z,7.83
2018-05-02T07:11:30.939Z,8.55
2018-05-02T07:13:59.207Z,8.48
2018-05-02T07:16:27.520Z,9.13
2018-05-02T07:18:55.802Z,7.65
2018-05-02T07:21:24.058Z,7.90
2018-05-02T07:23:52.338Z,7.40
2018-05-02T07:26:20.582Z,7.08
2018-05-02T07:28:48.887Z,6.62
2018-05-02T07:31:17.159Z,6.85
2018-05-02T07:33:45.447Z,6.42
2018-05-02T07:36:13.778Z,7.42
2018-05-02T07:38:42.079Z,7.40
2018-05-02T07:41:10.370Z,7.10
2018-05-02T07:43:38.673Z,7.50
2018-05-02T07:46:06.999Z,7.35
2018-05-02T07:48:34.590Z,7.15
2018-05-02T07:51:02.858Z,7.33
2018-05-02T07:53:31.114Z,7.42
2018-05-02T07:55:59.403Z,7.35
2018-05-02T07:58:27.669Z,8.15
2018-05-02T08:00:55.957Z,7.30
2018-05-02T08:03:24.208Z,6.70
2018-05-02T08:05:52.503Z,7.75
2018-05-02T08:08:20.823Z,7.78
2018-05-02T08:10:49.134Z,7.08
2018-05-02T08:13:17.473Z,8.10
2018-05-02T08:15:45.762Z,7.87
2018-05-02T08:18:14.067Z,6.37
2018-05-02T08:20:42.354Z,7.60
2018-05-02T08:23:10.662Z,6.90
2018-05-02T08:25:38.933Z,7.97
2018-05-02T08:28:07.234Z,7.60
2018-05-02T08:30:35.490Z,6.70
2018-05-02T08:33:03.852Z,7.45
2018-05-02T08:35:32.133Z,6.87
2018-05-02T08:38:00.403Z,6.78
2018-05-02T08:40:27.926Z,7.00
2018-05-02T08:42:56.224Z,7.00
2018-05-02T08:45:24.482Z,6.87
2018-05-02T08:47:53.581Z,7.17
2018-05-02T08:50:25.325Z,5.00
2018-05-02T08:52:53.572Z,5.45
2018-05-02T08:55:21.874Z,5.75
2018-05-02T08:57:50.148Z,5.25
2018-05-02T09:00:18.438Z,5.80
2018-05-02T09:02:46.693Z,5.90
2018-05-02T09:05:14.953Z,6.05
2018-05-02T09:07:43.379Z,5.40
2018-05-02T09:10:11.950Z,5.78
2018-05-02T09:12:40.295Z,5.60
2018-05-02T09:15:08.601Z,5.67
2018-05-02T09:17:36.883Z,5.90
2018-05-02T09:20:05.179Z,6.30
2018-05-02T09:22:33.463Z,5.08
2018-05-02T09:25:01.766Z,5.53
2018-05-02T09:27:30.080Z,4.83
2018-05-02T09:29:58.339Z,5.00
2018-05-02T09:32:26.631Z,4.65
2018-05-02T09:34:54.870Z,6.05
2018-05-02T09:37:23.214Z,6.78
2018-05-02T09:39:51.466Z,5.65
2018-05-02T09:42:19.763Z,5.50
2018-05-02T09:44:48.023Z,6.67
2018-05-02T10:08:51.946Z,6.97
2018-05-02T10:11:26.101Z,6.92
2018-05-02T10:16:45.233Z,7.55
2018-05-02T10:19:21.924Z,6.62
2018-05-02T10:21:58.571Z,6.22
2018-05-02T10:24:36.630Z,6.22
2018-05-02T10:27:18.767Z,6.28
2018-05-02T10:29:53.717Z,6.22
2018-05-02T10:32:31.481Z,6.55
2018-05-02T10:35:05.203Z,6.80
2018-05-02T10:37:45.587Z,6.05
2018-05-02T10:40:20.406Z,6.70
2018-05-02T10:42:52.555Z,6.67
2018-05-02T10:48:10.054Z,5.80
2018-05-02T10:50:43.971Z,5.90
2018-05-02T10:53:23.364Z,5.50
2018-05-02T11:05:04.111Z,5.72
2018-05-02T11:27:50.251Z,4.27
2018-05-02T11:30:24.859Z,5.10
2018-05-02T11:33:03.265Z,4.70
2018-05-02T11:35:39.430Z,4.20
2018-05-02T11:38:15.414Z,4.70
2018-05-02T11:40:48.599Z,4.30
2018-05-02T11:43:23.838Z,4.47
2018-05-02T11:46:00.016Z,4.45
2018-05-02T11:48:35.805Z,4.20
2018-05-02T11:51:11.586Z,3.90
2018-05-02T11:53:48.503Z,4.47
2018-05-02T11:56:22.997Z,4.20
2018-05-02T11:58:57.223Z,3.80
2018-05-02T12:01:33.707Z,4.20
2018-05-02T12:04:09.538Z,4.45
2018-05-02T12:06:47.964Z,4.30
2018-05-02T12:09:19.338Z,5.00
2018-05-02T12:11:52.954Z,4.65
2018-05-02T12:14:28.957Z,4.28
2018-05-02T12:17:08.836Z,4.92
2018-05-02T12:19:47.242Z,4.42
2018-05-02T12:22:22.963Z,4.03
2018-05-02T12:25:00.882Z,3.85
2018-05-02T12:27:41.036Z,4.05
2018-05-02T12:30:18.629Z,4.03
2018-05-02T12:32:56.022Z,4.15
2018-05-02T12:35:29.821Z,4.30
2018-05-02T12:38:00.918Z,4.20
2018-05-02T12:40:34.643Z,3.90
2018-05-02T12:43:13.652Z,3.40
2018-05-02T12:45:46.024Z,4.25
2018-05-02T12:48:21.573Z,3.40
2018-05-02T12:50:52.317Z,4.40
2018-05-02T12:53:28.471Z,4.25
2018-05-02T12:56:02.023Z,5.65
2018-05-02T12:58:39.576Z,4.35
2018-05-02T13:01:10.534Z,3.60
2018-05-02T13:03:44.620Z,4.03
2018-05-02T13:06:17.400Z,3.90
2018-05-02T13:08:52.083Z,3.80
2018-05-02T13:11:22.773Z,3.90
2018-05-02T13:13:54.847Z,3.90
2018-05-02T13:16:31.075Z,4.40
2018-05-02T13:19:03.295Z,3.30
2018-05-02T13:21:36.698Z,3.60
2018-05-02T13:24:09.072Z,3.72
2018-05-02T13:26:42.883Z,3.62
2018-05-02T13:29:18.829Z,3.22
2018-05-02T13:31:52.042Z,3.30
2018-05-02T13:34:27.261Z,3.30
2018-05-02T13:36:59.962Z,3.10
2018-05-02T13:39:35.641Z,3.67
2018-05-02T13:42:10.534Z,3.50
2018-05-02T13:44:46.890Z,3.33
2018-05-02T13:47:27.150Z,3.50
2018-05-02T13:50:05.642Z,3.55
2018-05-02T13:52:38.487Z,3.35
2018-05-02T13:55:14.833Z,3.40
2018-05-02T13:57:46.472Z,3.35
2018-05-02T14:00:20.852Z,3.15
2018-05-02T14:02:56.748Z,3.47
2018-05-02T14:05:32.699Z,3.30
2018-05-02T14:08:09.670Z,3.00
2018-05-02T14:10:46.891Z,3.40
2018-05-02T14:13:24.247Z,2.75
2018-05-02T14:15:59.897Z,2.75
2018-05-02T14:18:33.032Z,2.60
2018-05-02T14:21:10.313Z,2.85
2018-05-02T14:23:44.622Z,3.20
2018-05-02T14:26:24.027Z,2.92
2018-05-02T14:29:00.813Z,2.72
2018-05-02T14:31:45.276Z,2.62
2018-05-02T14:34:23.529Z,2.85
2018-05-02T14:36:59.524Z,2.60
2018-05-02T14:42:40.499Z,2.37
2018-05-02T14:45:19.930Z,2.55
2018-05-02T14:50:44.382Z,2.72
2018-05-02T14:53:24.182Z,2.70
2018-05-02T15:12:11.046Z,3.27
2018-05-02T15:14:42.974Z,2.90
2018-05-02T15:17:19.920Z,2.50
2018-05-02T15:23:07.066Z,2.70
2018-05-02T15:25:40.236Z,2.98
2018-05-02T15:28:12.352Z,2.87
2018-05-02T15:30:48.864Z,2.60
2018-05-02T15:33:28.846Z,2.35
2018-05-02T15:36:10.373Z,2.80
2018-05-02T15:38:47.164Z,2.60
2018-05-02T15:41:22.773Z,2.40
2018-05-02T15:43:54.185Z,2.67
2018-05-02T15:46:30.439Z,2.55
2018-05-02T15:49:05.756Z,2.33
2018-05-02T15:51:37.866Z,2.40
2018-05-02T15:54:21.233Z,2.90
2018-05-02T15:57:29.186Z,2.62
2018-05-02T15:59:58.426Z,2.60
2018-05-02T16:02:27.252Z,2.45
2018-05-02T16:04:56.098Z,2.62
2018-05-02T16:07:27.809Z,3.00
2018-05-02T16:09:59.815Z,2.90
2018-05-02T16:12:32.120Z,2.75
2018-05-02T16:15:11.462Z,3.00
2018-05-02T16:27:06.195Z,4.00
2018-05-02T16:29:43.768Z,4.00
2018-05-02T16:38:14.314Z,4.33
2018-05-02T17:06:54.374Z,3.70
2018-05-02T17:19:17.863Z,3.40
2018-05-02T17:22:03.174Z,4.25
2018-05-02T17:24:58.006Z,3.05
2018-05-02T17:30:41.924Z,3.17
2018-05-02T17:36:34.104Z,3.65
2018-05-02T17:39:29.238Z,4.03
2018-05-02T17:44:46.414Z,3.70
2018-05-02T17:47:25.898Z,3.45
2018-05-02T17:55:50.709Z,3.45
2018-05-02T18:01:13.843Z,3.42
2018-05-02T18:03:50.831Z,3.27
2018-05-02T18:11:57.936Z,4.28
2018-05-02T18:14:41.447Z,3.33
2018-05-02T18:17:13.699Z,3.30
2018-05-02T18:19:45.361Z,2.92
2018-05-02T18:22:20.959Z,3.25
2018-05-02T18:24:54.483Z,3.35
2018-05-02T18:27:26.102Z,3.35
2018-05-02T18:29:57.377Z,3.37
2018-05-02T18:32:27.583Z,2.90
2018-05-02T18:35:00.703Z,3.20
2018-05-02T18:37:34.862Z,3.30
2018-05-02T18:40:05.818Z,3.83
2018-05-02T18:42:40.453Z,3.67
2018-05-02T18:45:12.250Z,3.22
2018-05-02T18:47:42.222Z,3.80
2018-05-02T18:50:11.845Z,3.70
2018-05-02T18:52:44.270Z,3.77
2018-05-02T18:55:15.199Z,4.90
2018-05-02T18:57:46.692Z,3.87
2018-05-02T19:00:18.800Z,3.95
2018-05-02T19:02:58.785Z,3.85
2018-05-02T19:05:31.252Z,3.50
2018-05-02T19:08:06.242Z,3.85
2018-05-02T19:10:40.616Z,4.17
2018-05-02T19:13:13.137Z,4.28
2018-05-02T19:15:53.916Z,3.95
2018-05-02T19:21:22.133Z,3.67
2018-05-02T19:24:04.424Z,3.90
2018-05-02T19:26:49.646Z,4.25
2018-05-02T19:29:25.013Z,4.42
2018-05-02T19:32:00.814Z,4.45
2018-05-02T19:34:30.233Z,4.20
2018-05-02T19:37:01.089Z,4.50
2018-05-02T19:39:37.158Z,4.12
2018-05-02T19:44:20.973Z,4.65
2018-05-02T19:46:50.765Z,4.60
2018-05-02T19:49:19.715Z,4.22
2018-05-02T19:51:56.496Z,4.60
2018-05-02T19:54:27.382Z,4.28
2018-05-02T19:56:59.304Z,4.85
2018-05-02T19:59:29.392Z,5.17
2018-05-02T20:03:07.476Z,4.75
2018-05-02T20:05:38.606Z,4.80
2018-05-02T20:08:12.098Z,4.50
2018-05-02T20:11:47.279Z,4.87
2018-05-02T20:14:16.446Z,4.78
2018-05-02T20:16:47.314Z,5.50
2018-05-02T20:19:17.564Z,5.45
2018-05-02T20:21:50.452Z,5.03
2018-05-02T20:24:22.000Z,5.12
2018-05-02T20:26:54.211Z,5.33
2018-05-02T20:29:23.389Z,5.35
2018-05-02T20:31:54.086Z,5.60
2018-05-02T20:34:31.210Z,6.78
2018-05-02T20:37:01.132Z,4.60
2018-05-02T20:39:31.532Z,5.50
2018-05-02T20:42:03.864Z,4.87
2018-05-02T20:44:34.435Z,4.75
2018-05-02T20:47:03.599Z,5.65
2018-05-02T20:49:35.892Z,5.28
2018-05-02T20:52:07.664Z,5.65
2018-05-02T20:54:38.737Z,6.05
2018-05-02T20:57:11.001Z,5.17
2018-05-02T20:59:44.608Z,4.95
2018-05-02T21:02:13.722Z,4.70
2018-05-02T21:04:44.941Z,5.30
2018-05-02T21:07:15.595Z,5.25
2018-05-02T21:09:46.684Z,5.05
2018-05-02T21:12:19.100Z,4.85
2018-05-02T21:14:50.346Z,5.15
2018-05-02T21:17:19.714Z,4.60
2018-05-02T21:19:55.359Z,5.08
2018-05-02T21:22:26.255Z,4.72
2018-05-02T21:25:04.015Z,4.62
2018-05-02T21:27:35.481Z,4.72
2018-05-02T21:30:05.459Z,5.20
2018-05-02T21:32:37.755Z,4.60
2018-05-02T21:35:07.499Z,4.35
2018-05-02T21:37:38.561Z,4.65
2018-05-02T21:40:10.442Z,4.75
2018-05-02T21:42:42.303Z,4.67
2018-05-02T21:45:14.904Z,4.85
2018-05-02T21:47:49.341Z,4.92
2018-05-02T21:50:24.626Z,4.10
2018-05-02T21:53:01.428Z,5.30
2018-05-02T21:55:33.564Z,4.97
2018-05-02T21:58:09.256Z,4.97
2018-05-02T22:00:43.612Z,4.90
2018-05-02T22:03:16.151Z,5.08
2018-05-02T22:05:50.634Z,5.42
2018-05-02T22:08:22.958Z,5.00
2018-05-02T22:10:53.169Z,4.62
2018-05-02T22:13:26.042Z,5.45
2018-05-02T22:15:57.882Z,5.15
2018-05-02T22:18:29.365Z,5.00
2018-05-02T22:21:01.700Z,4.45
2018-05-02T22:23:34.825Z,5.10
2018-05-02T22:26:09.818Z,4.58
2018-05-02T22:28:42.038Z,5.10
2018-05-02T22:31:13.968Z,4.95
2018-05-02T22:33:48.244Z,5.83
2018-05-02T22:36:20.500Z,5.20
2018-05-02T22:38:51.573Z,4.87
2018-05-02T22:41:27.958Z,5.60
2018-05-02T22:44:00.444Z,6.00
2018-05-02T22:46:31.798Z,6.08
2018-05-02T22:49:07.322Z,5.45
2018-05-02T22:51:37.912Z,5.37
2018-05-02T22:54:11.718Z,5.42
2018-05-02T22:56:46.377Z,5.85
2018-05-02T22:59:18.596Z,6.05
2018-05-02T23:01:53.808Z,5.85
2018-05-02T23:04:24.022Z,5.95
2018-05-02T23:07:01.976Z,6.17
2018-05-02T23:09:32.390Z,6.22
2018-05-02T23:12:03.508Z,6.05
2018-05-02T23:14:35.565Z,5.92
2018-05-02T23:17:08.807Z,5.75
2018-05-02T23:19:39.656Z,5.90
2018-05-02T23:22:15.895Z,5.97
2018-05-02T23:24:49.088Z,6.47
2018-05-02T23:27:19.306Z,6.75
2018-05-02T23:29:48.323Z,6.20
2018-05-02T23:32:19.232Z,6.42
2018-05-02T23:34:51.557Z,5.80
2018-05-02T23:37:22.978Z,5.85
2018-05-02T23:39:54.577Z,5.72
2018-05-02T23:42:31.046Z,5.80
2018-05-02T23:45:02.034Z,6.30
2018-05-02T23:47:34.521Z,6.97
2018-05-02T23:50:04.180Z,5.83
2018-05-02T23:52:39.368Z,6.20
2018-05-02T23:55:09.654Z,6.20
2018-05-02T23:57:41.855Z,5.60
